Time;durP1;ratioP1;P1;durP2;ratioP2;P2;SDS_P1;SDS_P2;PMS_P1;PMS_P2;Temp;Humidity;BMP_temperature;BMP_pressure;BME280_temperature;BME280_humidity;BME280_pressure;Samples;Min_cycle;Max_cycle;Signal;HPM_P1;HPM_P2
2022/05/12 00:01:15;;;;;;;;;;;;;;;14.74;64.04;101317.19;5048602;28;19920;-57
2022/05/12 00:03:41;;;;;;;;;;;;;;;14.72;64.09;101324.53;5046601;28;20007;-56
2022/05/12 00:06:06;;;;;;;;;;;;;;;14.70;64.82;101331.91;5050761;28;19978;-57
2022/05/12 00:08:31;;;;;;;;;;;;;;;14.64;64.29;101330.75;5049018;28;19941;-57
2022/05/12 00:10:57;;;;;;;;;;;;;;;14.55;64.01;101335.31;5051666;28;19928;-57
2022/05/12 00:13:22;;;;;;;;;;;;;;;14.56;64.67;101336.97;5049487;28;19990;-58
2022/05/12 00:15:48;;;;;;;;;;;;;;;14.65;64.24;101333.25;5045486;28;19936;-57
2022/05/12 00:18:13;;;;;;;;;;;;;;;14.52;63.97;101341.03;5048315;28;19936;-57
2022/05/12 00:20:41;;;;;;;;;;;;;;;14.44;64.09;101341.03;5048599;28;19921;-57
2022/05/12 00:23:17;;;;;;;;;;;;;;;14.38;64.32;101354.09;5050593;28;20295;-57
2022/05/12 00:25:44;;;;;;;;;;;;;;;14.32;64.66;101349.47;5044155;28;19921;-57
2022/05/12 00:28:10;;;;;;;;;;;;;;;14.29;64.31;101349.78;5049874;28;20023;-57
2022/05/12 00:30:35;;;;;;;;;;;;;;;14.27;64.43;101351.81;5050452;28;20399;-57
2022/05/12 00:33:01;;;;;;;;;;;;;;;14.24;64.70;101350.31;5050483;28;19921;-58
2022/05/12 00:35:26;;;;;;;;;;;;;;;14.25;64.59;101353.81;5048848;28;19921;-56
2022/05/12 00:37:51;;;;;;;;;;;;;;;14.26;64.86;101360.78;5046846;28;19921;-57
2022/05/12 00:40:16;;;;;;;;;;;;;;;14.21;64.75;101365.84;5041448;28;19921;-57
2022/05/12 00:43:11;;;;;;;;;;;;;;;14.15;64.63;101374.53;5049149;28;19921;-57
2022/05/12 00:45:37;;;;;;;;;;;;;;;14.12;64.77;101365.84;4979178;28;19922;-57
2022/05/12 00:48:03;;;;;;;;;;;;;;;14.12;64.74;101371.19;5046880;28;19928;-57
2022/05/12 00:50:38;;;;;;;;;;;;;;;14.12;64.68;101371.19;5048764;28;20272;-57
2022/05/12 00:53:04;;;;;;;;;;;;;;;14.07;64.78;101373.53;5048527;28;19920;-56
2022/05/12 00:55:35;;;;;;;;;;;;;;;14.02;64.40;101373.25;5033863;28;19928;-57
2022/05/12 00:58:02;;;;;;;;;;;;;;;13.98;64.44;101379.91;5048310;28;19939;-57
2022/05/12 01:00:27;;;;;;;;;;;;;;;13.91;64.43;101385.09;5046895;28;19928;-57
2022/05/12 01:02:54;;;;;;;;;;;;;;;13.89;64.52;101380.91;5050484;28;19925;-57
2022/05/12 01:05:21;;;;;;;;;;;;;;;13.87;64.32;101382.94;5050611;28;19939;-57
2022/05/12 01:07:46;;;;;;;;;;;;;;;13.90;64.42;101387.91;5048062;28;19921;-57
2022/05/12 01:10:12;;;;;;;;;;;;;;;13.85;64.41;101383.94;5051595;28;20527;-58
2022/05/12 01:12:38;;;;;;;;;;;;;;;13.83;64.28;101385.13;5051720;28;19921;-57
2022/05/12 01:15:04;;;;;;;;;;;;;;;13.82;64.36;101397.59;5048359;28;19924;-58
2022/05/12 01:17:29;;;;;;;;;;;;;;;13.79;64.30;101397.94;5048621;28;20279;-57
2022/05/12 01:19:55;;;;;;;;;;;;;;;13.81;64.37;101405.78;5045960;28;19921;-57
2022/05/12 01:22:39;;;;;;;;;;;;;;;13.78;64.67;101401.63;5048797;28;19928;-57
2022/05/12 01:25:23;;;;;;;;;;;;;;;13.73;64.53;101409.28;5048808;28;19987;-57
2022/05/12 01:27:49;;;;;;;;;;;;;;;13.70;64.51;101410.44;5054153;28;19932;-57
2022/05/12 01:30:15;;;;;;;;;;;;;;;13.66;64.69;101409.13;5049646;28;19928;-57
2022/05/12 01:32:43;;;;;;;;;;;;;;;13.62;64.77;101406.97;5049759;28;19948;-57
2022/05/12 01:35:09;;;;;;;;;;;;;;;13.57;65.08;101413.63;5050743;28;19928;-57
2022/05/12 01:37:39;;;;;;;;;;;;;;;13.55;65.33;101423.63;5051131;28;19924;-57
2022/05/12 01:40:05;;;;;;;;;;;;;;;13.45;65.29;101422.91;5040451;28;19925;-57
2022/05/12 01:42:30;;;;;;;;;;;;;;;13.45;65.50;101425.56;5046852;28;19921;-57
2022/05/12 01:44:55;;;;;;;;;;;;;;;13.44;65.54;101431.91;5044138;28;20040;-57
2022/05/12 01:47:20;;;;;;;;;;;;;;;13.40;65.50;101433.22;5047913;28;19925;-57
2022/05/12 01:49:47;;;;;;;;;;;;;;;13.36;65.28;101429.25;5045552;28;20039;-57
2022/05/12 01:52:12;;;;;;;;;;;;;;;13.37;65.56;101430.91;5050485;28;19943;-56
2022/05/12 01:54:37;;;;;;;;;;;;;;;13.36;66.29;101438.06;5047199;28;19921;-57
2022/05/12 01:57:03;;;;;;;;;;;;;;;13.27;65.91;101437.22;5050324;28;20323;-57
2022/05/12 01:59:28;;;;;;;;;;;;;;;13.26;66.37;101440.88;5049333;28;19956;-56
2022/05/12 02:01:54;;;;;;;;;;;;;;;13.22;66.04;101444.88;5048121;28;19925;-57
2022/05/12 02:04:20;;;;;;;;;;;;;;;13.22;66.45;101449.38;5049086;28;20371;-57
2022/05/12 02:06:45;;;;;;;;;;;;;;;13.15;66.56;101450.03;5040991;28;19972;-57
2022/05/12 02:09:11;;;;;;;;;;;;;;;13.09;68.12;101455.16;5048112;28;19921;-57
2022/05/12 02:11:36;;;;;;;;;;;;;;;13.03;66.87;101462.81;5052336;28;19921;-57
2022/05/12 02:14:04;;;;;;;;;;;;;;;12.99;66.52;101456.16;5051850;28;19929;-56
2022/05/12 02:16:30;;;;;;;;;;;;;;;12.99;66.86;101466.81;5053746;28;19967;-58
2022/05/12 02:18:55;;;;;;;;;;;;;;;12.98;66.88;101465.09;5048272;28;19921;-57
2022/05/12 02:21:21;;;;;;;;;;;;;;;13.00;66.75;101471.13;5047889;28;19931;-57
2022/05/12 02:23:46;;;;;;;;;;;;;;;12.99;66.85;101477.44;5044340;28;20402;-57
2022/05/12 02:26:11;;;;;;;;;;;;;;;12.95;66.93;101481.44;5046258;28;19928;-58
2022/05/12 02:28:37;;;;;;;;;;;;;;;12.90;66.72;101473.94;5046911;28;20371;-57
2022/05/12 02:31:02;;;;;;;;;;;;;;;12.89;66.99;101482.06;5052422;28;19921;-57
2022/05/12 02:33:28;;;;;;;;;;;;;;;12.87;66.73;101478.72;5051993;28;19960;-57
2022/05/12 02:35:53;;;;;;;;;;;;;;;12.89;66.71;101480.22;5049797;28;19952;-58
2022/05/12 02:38:19;;;;;;;;;;;;;;;12.89;66.96;101484.72;5053069;28;19939;-57
2022/05/12 02:40:44;;;;;;;;;;;;;;;12.87;66.91;101484.03;5050848;28;19927;-57
2022/05/12 02:43:25;;;;;;;;;;;;;;;12.88;66.91;101485.72;5050499;28;19925;-56
2022/05/12 02:45:57;;;;;;;;;;;;;;;12.87;66.91;101487.53;5052570;28;20002;-57
2022/05/12 02:48:24;;;;;;;;;;;;;;;12.88;67.03;101496.38;5052822;28;19921;-57
2022/05/12 02:50:50;;;;;;;;;;;;;;;12.84;67.25;101495.88;5050341;28;19929;-57
2022/05/12 02:53:15;;;;;;;;;;;;;;;12.81;66.57;101500.66;5044917;28;19921;-57
2022/05/12 02:55:40;;;;;;;;;;;;;;;12.76;66.88;101501.97;5047959;28;19924;-57
2022/05/12 02:58:06;;;;;;;;;;;;;;;12.72;66.82;101505.09;5035495;28;19925;-57
2022/05/12 03:00:33;;;;;;;;;;;;;;;12.70;66.98;101502.63;5050715;28;19925;-57
2022/05/12 03:02:59;;;;;;;;;;;;;;;12.71;66.77;101498.97;5045584;28;19924;-57
2022/05/12 03:05:25;;;;;;;;;;;;;;;12.71;66.74;101506.94;5049695;28;19975;-57
2022/05/12 03:07:50;;;;;;;;;;;;;;;12.67;67.19;101510.91;5049155;28;19928;-57
2022/05/12 03:10:15;;;;;;;;;;;;;;;12.65;67.60;101510.25;5046911;28;19921;-57
2022/05/12 03:12:41;;;;;;;;;;;;;;;12.55;67.62;101512.19;5049465;28;19925;-57
2022/05/12 03:15:07;;;;;;;;;;;;;;;12.47;67.55;101513.81;5049809;28;19936;-57
2022/05/12 03:17:32;;;;;;;;;;;;;;;12.46;68.12;101514.81;5051572;28;19928;-57
2022/05/12 03:19:57;;;;;;;;;;;;;;;12.40;68.25;101512.78;5033354;28;19982;-57
2022/05/12 03:22:22;;;;;;;;;;;;;;;12.35;67.57;101513.22;5052373;28;19928;-57
2022/05/12 03:24:47;;;;;;;;;;;;;;;12.35;67.66;101517.72;5032802;28;20284;-57
2022/05/12 03:27:13;;;;;;;;;;;;;;;12.35;67.92;101523.03;5051297;28;20016;-57
2022/05/12 03:29:38;;;;;;;;;;;;;;;12.36;68.19;101530.03;5050542;28;20578;-57
2022/05/12 03:32:05;;;;;;;;;;;;;;;12.27;68.16;101522.97;5052789;28;19925;-55
2022/05/12 03:34:30;;;;;;;;;;;;;;;12.27;67.90;101528.28;5051875;28;19927;-56
2022/05/12 03:36:56;;;;;;;;;;;;;;;12.26;68.46;101534.59;5047520;28;20283;-56
2022/05/12 03:39:21;;;;;;;;;;;;;;;12.19;69.14;101540.53;5050866;28;20401;-56
2022/05/12 03:41:46;;;;;;;;;;;;;;;12.15;68.58;101543.66;5051613;28;19927;-56
2022/05/12 03:46:55;;;;;;;;;;;;;;;12.08;68.82;101546.94;5052191;28;20362;-57
2022/05/12 03:49:21;;;;;;;;;;;;;;;12.06;69.56;101550.75;5047937;28;19921;-57
2022/05/12 03:51:46;;;;;;;;;;;;;;;12.03;69.54;101561.66;5050804;28;19921;-56
2022/05/12 03:54:11;;;;;;;;;;;;;;;12.04;70.13;101553.56;5050918;28;20536;-57
2022/05/12 03:56:37;;;;;;;;;;;;;;;11.98;70.06;101557.63;5051045;28;19931;-56
2022/05/12 03:59:03;;;;;;;;;;;;;;;11.94;70.42;101552.78;5032628;28;20391;-56
2022/05/12 04:01:29;;;;;;;;;;;;;;;11.87;70.09;101563.19;5042961;28;19944;-57
2022/05/12 04:03:54;;;;;;;;;;;;;;;11.85;70.50;101567.81;5048305;28;19924;-57
2022/05/12 04:06:19;;;;;;;;;;;;;;;11.85;70.13;101570.47;5045555;28;19927;-56
2022/05/12 04:08:45;;;;;;;;;;;;;;;11.84;70.67;101577.59;5046260;28;20407;-56
2022/05/12 04:11:10;;;;;;;;;;;;;;;11.83;70.19;101577.75;5050268;28;19996;-56
2022/05/12 04:13:35;;;;;;;;;;;;;;;11.78;71.03;101586.19;5042660;28;19920;-56
2022/05/12 04:16:00;;;;;;;;;;;;;;;11.75;70.92;101588.31;5045192;28;19972;-54
2022/05/12 04:18:26;;;;;;;;;;;;;;;11.75;70.62;101588.31;5037129;28;19996;-57
2022/05/12 04:20:52;;;;;;;;;;;;;;;11.74;71.43;101591.97;5048015;28;20059;-57
2022/05/12 04:23:17;;;;;;;;;;;;;;;11.77;71.06;101594.31;5045431;28;19921;-56
2022/05/12 04:25:42;;;;;;;;;;;;;;;11.76;70.54;101593.47;5047188;28;19925;-56
2022/05/12 04:28:08;;;;;;;;;;;;;;;11.80;70.88;101609.97;5050162;28;19990;-55
2022/05/12 04:30:33;;;;;;;;;;;;;;;11.81;70.79;101608.97;5044691;28;19929;-56
2022/05/12 04:35:09;;;;;;;;;;;;;;;11.83;71.71;101609.66;5044067;28;19924;-56
2022/05/12 04:35:43;;;;;;;;;;;;;;;11.85;72.03;101613.00;5043025;28;19987;-57
2022/05/12 04:38:10;;;;;;;;;;;;;;;11.81;72.62;101608.97;5040904;28;19967;-57
2022/05/12 04:40:36;;;;;;;;;;;;;;;11.74;72.06;101616.69;5049158;28;20028;-57
2022/05/12 04:43:01;;;;;;;;;;;;;;;11.75;72.59;101625.50;5050424;28;20393;-55
2022/05/12 04:45:28;;;;;;;;;;;;;;;11.74;73.16;101624.66;5047820;28;19975;-57
2022/05/12 04:47:54;;;;;;;;;;;;;;;11.74;72.70;101623.84;5041819;28;19931;-57
2022/05/12 04:50:21;;;;;;;;;;;;;;;11.78;72.92;101628.69;5044729;28;19925;-57
2022/05/12 04:52:47;;;;;;;;;;;;;;;11.75;72.73;101618.34;5045027;28;19928;-58
2022/05/12 04:55:12;;;;;;;;;;;;;;;11.79;72.82;101619.75;5045036;28;19996;-58
2022/05/12 04:57:38;;;;;;;;;;;;;;;11.85;72.65;101626.28;5048009;28;20007;-56
2022/05/12 05:00:04;;;;;;;;;;;;;;;11.88;72.82;101623.31;5043656;28;19928;-56
2022/05/12 05:02:30;;;;;;;;;;;;;;;12.02;73.74;101635.25;5044873;28;19921;-57
2022/05/12 05:04:55;;;;;;;;;;;;;;;11.97;72.71;101638.38;5042522;28;19970;-56
2022/05/12 05:07:20;;;;;;;;;;;;;;;12.06;72.98;101636.66;5042671;28;19949;-56
2022/05/12 05:09:45;;;;;;;;;;;;;;;12.08;73.15;101649.78;5043676;28;19964;-58
2022/05/12 05:12:10;;;;;;;;;;;;;;;12.10;73.93;101655.81;5042385;28;20466;-59
2022/05/12 05:14:36;;;;;;;;;;;;;;;12.08;73.54;101663.06;5045820;28;19960;-57
2022/05/12 05:17:01;;;;;;;;;;;;;;;12.13;73.80;101662.63;5046019;28;19921;-57
2022/05/12 05:19:27;;;;;;;;;;;;;;;12.14;73.75;101659.00;5045156;28;19929;-57
2022/05/12 05:21:52;;;;;;;;;;;;;;;12.20;73.76;101658.38;5041217;28;20371;-57
2022/05/12 05:24:17;;;;;;;;;;;;;;;12.19;73.81;101662.84;5044362;28;19921;-57
2022/05/12 05:26:42;;;;;;;;;;;;;;;12.23;73.58;101668.69;5043477;28;20764;-57
2022/05/12 05:29:08;;;;;;;;;;;;;;;12.27;74.21;101672.72;5031522;28;19928;-57
2022/05/12 05:31:36;;;;;;;;;;;;;;;12.27;73.49;101670.06;5046284;28;19978;-56
2022/05/12 05:34:01;;;;;;;;;;;;;;;12.43;75.36;101672.03;5042765;28;19925;-57
2022/05/12 05:36:26;;;;;;;;;;;;;;;12.37;75.08;101676.16;5031467;28;19928;-57
2022/05/12 05:38:51;;;;;;;;;;;;;;;12.42;75.17;101688.16;5045928;28;20000;-57
2022/05/12 05:41:16;;;;;;;;;;;;;;;12.43;74.92;101695.16;5048143;28;19936;-58
2022/05/12 05:43:41;;;;;;;;;;;;;;;12.48;75.00;101699.03;5045749;28;20407;-57
2022/05/12 05:46:07;;;;;;;;;;;;;;;12.50;75.02;101697.03;5042509;28;19928;-57
2022/05/12 05:48:32;;;;;;;;;;;;;;;12.59;74.64;101703.25;5044709;28;19921;-57
2022/05/12 05:53:42;;;;;;;;;;;;;;;12.75;75.24;101715.88;5045754;28;19928;-56
2022/05/12 05:56:12;;;;;;;;;;;;;;;12.77;75.17;101713.03;5045197;28;19924;-57
2022/05/12 05:58:39;;;;;;;;;;;;;;;12.79;75.16;101724.41;5045600;28;19925;-57
2022/05/12 06:01:04;;;;;;;;;;;;;;;12.87;75.00;101731.59;5047214;28;20063;-57
2022/05/12 06:03:30;;;;;;;;;;;;;;;12.96;75.41;101733.31;5044857;28;21797;-58
2022/05/12 06:05:56;;;;;;;;;;;;;;;12.99;75.57;101738.34;5047602;28;20002;-58
2022/05/12 06:08:21;;;;;;;;;;;;;;;13.03;75.84;101739.69;5045771;28;19930;-58
2022/05/12 06:10:46;;;;;;;;;;;;;;;13.14;75.70;101740.44;5045243;28;19927;-58
2022/05/12 06:13:12;;;;;;;;;;;;;;;13.18;75.68;101736.47;5045824;28;19920;-58
2022/05/12 06:15:38;;;;;;;;;;;;;;;13.21;75.57;101741.47;5046891;28;19925;-57
2022/05/12 06:18:08;;;;;;;;;;;;;;;13.25;75.20;101742.84;5047276;28;20372;-58
2022/05/12 06:20:33;;;;;;;;;;;;;;;13.36;74.99;101748.91;5032749;28;20263;-57
2022/05/12 06:22:58;;;;;;;;;;;;;;;13.47;75.43;101756.63;5047577;28;19932;-58
2022/05/12 06:25:23;;;;;;;;;;;;;;;13.53;75.21;101757.84;5055848;28;20434;-58
2022/05/12 06:27:51;;;;;;;;;;;;;;;13.64;76.37;101756.72;5044745;28;19928;-58
2022/05/12 06:30:17;;;;;;;;;;;;;;;13.64;75.50;101762.91;5046149;28;19921;-58
2022/05/12 06:32:43;;;;;;;;;;;;;;;13.62;75.29;101764.88;5052863;28;19943;-58
2022/05/12 06:35:09;;;;;;;;;;;;;;;13.68;75.08;101768.75;5051425;28;19920;-58
2022/05/12 06:37:35;;;;;;;;;;;;;;;13.76;75.08;101766.13;5051447;28;19921;-58
2022/05/12 06:40:00;;;;;;;;;;;;;;;13.85;75.38;101770.50;5048506;28;19924;-58
2022/05/12 06:42:25;;;;;;;;;;;;;;;13.85;74.88;101769.66;5050116;28;19929;-58
2022/05/12 06:44:51;;;;;;;;;;;;;;;13.89;74.98;101775.50;5050877;28;19921;-58
2022/05/12 06:47:16;;;;;;;;;;;;;;;14.04;75.94;101778.38;5042470;28;19939;-58
2022/05/12 06:49:42;;;;;;;;;;;;;;;14.13;74.89;101780.91;5046789;28;20023;-58
2022/05/12 06:52:08;;;;;;;;;;;;;;;14.02;74.71;101786.56;5044635;28;19990;-58
2022/05/12 06:54:34;;;;;;;;;;;;;;;13.85;74.89;101797.16;5043392;28;20023;-58
2022/05/12 06:57:00;;;;;;;;;;;;;;;13.82;74.94;101792.13;5042437;28;20398;-58
2022/05/12 06:59:25;;;;;;;;;;;;;;;13.78;74.75;101795.28;5032408;28;20028;-57
2022/05/12 07:01:50;;;;;;;;;;;;;;;14.01;74.54;101792.88;5051515;28;19927;-58
2022/05/12 07:04:16;;;;;;;;;;;;;;;13.90;73.93;101793.16;5049016;28;19971;-58
2022/05/12 07:06:41;;;;;;;;;;;;;;;14.02;73.92;101799.91;5048478;28;19921;-58
2022/05/12 07:09:06;;;;;;;;;;;;;;;14.18;73.60;101800.94;5049159;28;19969;-58
2022/05/12 07:11:31;;;;;;;;;;;;;;;14.27;73.10;101802.66;5049176;28;19932;-57
2022/05/12 07:13:56;;;;;;;;;;;;;;;14.57;71.90;101795.03;5049493;28;19960;-59
2022/05/12 07:16:21;;;;;;;;;;;;;;;14.50;72.41;101794.00;5049407;28;19925;-58
2022/05/12 07:18:47;;;;;;;;;;;;;;;14.65;72.10;101797.72;5052073;28;19928;-58
2022/05/12 07:26:40;;;;;;;;;;;;;;;15.06;70.39;101804.94;5051483;28;19944;-58
2022/05/12 07:29:10;;;;;;;;;;;;;;;14.93;70.07;101805.44;5048672;28;20360;-59
2022/05/12 07:31:35;;;;;;;;;;;;;;;14.84;70.74;101817.13;5041152;28;19920;-58
2022/05/12 07:34:00;;;;;;;;;;;;;;;14.83;70.92;101820.78;5040771;28;19967;-58
2022/05/12 07:36:28;;;;;;;;;;;;;;;14.83;70.43;101814.59;5045191;28;20369;-58
2022/05/12 07:38:58;;;;;;;;;;;;;;;15.03;68.97;101815.13;5047064;28;19971;-58
2022/05/12 07:41:23;;;;;;;;;;;;;;;14.98;69.38;101818.28;5044993;28;19955;-58
2022/05/12 07:43:49;;;;;;;;;;;;;;;15.06;68.88;101814.78;5042687;28;19962;-58
2022/05/12 07:46:15;;;;;;;;;;;;;;;15.20;67.82;101821.31;5047292;28;19921;-58
2022/05/12 07:48:41;;;;;;;;;;;;;;;15.27;67.22;101824.13;5043331;28;19936;-58
2022/05/12 07:51:07;;;;;;;;;;;;;;;15.38;65.34;101821.09;5043858;28;20406;-58
2022/05/12 07:53:32;;;;;;;;;;;;;;;15.57;65.55;101827.06;5042514;28;20008;-58
2022/05/12 07:55:57;;;;;;;;;;;;;;;15.57;64.90;101827.06;5044770;28;19928;-58
2022/05/12 07:58:23;;;;;;;;;;;;;;;15.46;65.88;101823.75;5045027;28;19936;-59
2022/05/12 08:00:48;;;;;;;;;;;;;;;15.53;66.13;101831.09;5045145;28;20369;-58
2022/05/12 08:03:13;;;;;;;;;;;;;;;15.40;65.88;101837.78;5043154;28;19974;-58
2022/05/12 08:05:38;;;;;;;;;;;;;;;15.33;65.76;101836.81;5042501;28;20052;-58
2022/05/12 08:08:05;;;;;;;;;;;;;;;15.37;62.43;101845.31;5031389;28;19928;-58
2022/05/12 08:10:31;;;;;;;;;;;;;;;15.39;63.77;101841.47;5043600;28;19971;-58
2022/05/12 08:12:56;;;;;;;;;;;;;;;15.29;63.61;101838.97;5045152;28;19971;-58
2022/05/12 08:15:24;;;;;;;;;;;;;;;15.28;62.88;101839.16;5043226;28;19928;-58
2022/05/12 08:17:50;;;;;;;;;;;;;;;15.28;63.10;101841.81;5041830;28;19921;-59
2022/05/12 08:20:15;;;;;;;;;;;;;;;15.43;63.87;101842.81;5039845;28;19932;-58
2022/05/12 08:22:42;;;;;;;;;;;;;;;15.72;58.81;101841.44;5041737;28;21398;-59
2022/05/12 08:25:08;;;;;;;;;;;;;;;15.59;61.00;101841.09;5042584;28;20268;-58
2022/05/12 08:27:34;;;;;;;;;;;;;;;15.78;61.39;101844.44;5041298;28;20382;-57
2022/05/12 08:29:59;;;;;;;;;;;;;;;15.71;61.54;101845.09;5031302;28;19964;-57
2022/05/12 08:32:24;;;;;;;;;;;;;;;15.69;59.05;101847.09;5047965;28;20329;-57
2022/05/12 08:34:49;;;;;;;;;;;;;;;15.68;60.00;101840.09;5046133;28;19939;-58
2022/05/12 08:37:15;;;;;;;;;;;;;;;15.71;60.02;101847.78;5043600;28;20318;-59
2022/05/12 08:39:44;;;;;;;;;;;;;;;15.85;59.22;101840.88;5044737;28;19986;-58
2022/05/12 08:42:26;;;;;;;;;;;;;;;15.98;59.11;101840.38;5033746;28;20295;-59
2022/05/12 08:44:51;;;;;;;;;;;;;;;16.18;58.60;101842.63;5043327;28;19996;-59
2022/05/12 08:47:23;;;;;;;;;;;;;;;16.21;57.65;101844.97;5040647;28;20060;-57
2022/05/12 08:49:52;;;;;;;;;;;;;;;16.17;57.63;101854.34;5046347;28;19969;-57
2022/05/12 08:52:27;;;;;;;;;;;;;;;15.89;58.00;101846.69;5040940;28;19921;-57
2022/05/12 08:54:56;;;;;;;;;;;;;;;15.92;56.95;101853.56;5048520;28;19925;-58
2022/05/12 08:57:40;;;;;;;;;;;;;;;16.11;56.22;101852.34;5040671;28;19925;-57
2022/05/12 09:00:07;;;;;;;;;;;;;;;16.18;52.56;101839.94;5043405;28;19928;-55
2022/05/12 09:02:44;;;;;;;;;;;;;;;16.13;54.33;101856.53;5039845;28;19921;-56
2022/05/12 09:05:11;;;;;;;;;;;;;;;16.07;55.10;101853.69;5042490;28;20067;-58
2022/05/12 09:07:39;;;;;;;;;;;;;;;16.27;53.12;101860.31;5051925;28;20592;-59
2022/05/12 09:10:10;;;;;;;;;;;;;;;16.35;54.54;101866.63;5051244;28;19924;-60
2022/05/12 09:12:42;;;;;;;;;;;;;;;16.58;55.11;101860.50;5045225;28;19931;-58
2022/05/12 09:15:07;;;;;;;;;;;;;;;16.77;55.33;101862.69;5047107;28;19937;-59
2022/05/12 09:17:39;;;;;;;;;;;;;;;17.05;54.86;101854.16;5049566;28;19921;-59
2022/05/12 09:20:09;;;;;;;;;;;;;;;17.16;54.92;101857.41;5044849;28;19920;-57
2022/05/12 09:22:34;;;;;;;;;;;;;;;17.22;53.47;101856.69;5043704;28;19964;-57
2022/05/12 09:24:59;;;;;;;;;;;;;;;17.10;53.19;101867.03;5048610;28;20380;-58
2022/05/12 09:27:36;;;;;;;;;;;;;;;17.01;52.56;101865.38;5049858;28;19924;-57
2022/05/12 09:30:04;;;;;;;;;;;;;;;16.86;52.51;101862.63;5045770;28;19940;-59
2022/05/12 09:32:31;;;;;;;;;;;;;;;16.84;52.04;101854.81;5048050;28;20326;-58
2022/05/12 09:35:06;;;;;;;;;;;;;;;17.10;50.02;101868.84;5046156;28;19928;-59
2022/05/12 09:37:32;;;;;;;;;;;;;;;17.04;50.93;101865.06;5046196;28;19921;-58
2022/05/12 09:40:14;;;;;;;;;;;;;;;17.05;51.61;101862.22;5049471;28;19921;-59
2022/05/12 09:42:42;;;;;;;;;;;;;;;17.33;50.85;101853.56;5045795;28;19921;-58
2022/05/12 09:45:08;;;;;;;;;;;;;;;17.58;50.90;101856.00;5045932;28;19924;-58
2022/05/12 09:47:34;;;;;;;;;;;;;;;17.77;51.25;101848.47;5045367;28;19925;-58
2022/05/12 09:50:22;;;;;;;;;;;;;;;18.02;48.22;101850.84;5048584;28;19951;-58
2022/05/12 09:52:53;;;;;;;;;;;;;;;18.05;48.90;101850.47;5035342;28;19932;-58
2022/05/12 09:55:18;;;;;;;;;;;;;;;17.87;48.56;101837.47;5050409;28;19943;-58
2022/05/12 09:57:45;;;;;;;;;;;;;;;17.69;49.20;101845.84;5044204;28;19933;-58
2022/05/12 10:00:22;;;;;;;;;;;;;;;17.72;48.45;101856.22;5046611;28;20061;-58
2022/05/12 10:08:24;;;;;;;;;;;;;;;17.97;47.39;101847.91;5042661;28;19927;-58
2022/05/12 10:10:56;;;;;;;;;;;;;;;17.86;46.71;101847.34;5042745;28;19920;-58
2022/05/12 10:13:27;;;;;;;;;;;;;;;17.99;46.14;101848.53;5050135;28;19921;-58
2022/05/12 10:15:54;;;;;;;;;;;;;;;17.84;46.55;101849.38;5044472;28;19921;-58
2022/05/12 10:18:25;;;;;;;;;;;;;;;17.79;46.33;101846.44;5046068;28;19951;-59
2022/05/12 10:20:52;;;;;;;;;;;;;;;17.77;46.81;101859.19;5047848;28;19921;-58
2022/05/12 10:23:24;;;;;;;;;;;;;;;17.69;46.51;101856.59;5049463;28;19925;-58
2022/05/12 10:25:57;;;;;;;;;;;;;;;17.53;46.70;101857.59;5044175;28;19925;-58
2022/05/12 10:28:30;;;;;;;;;;;;;;;17.48;47.85;101855.47;5044639;28;19944;-58
2022/05/12 10:31:03;;;;;;;;;;;;;;;17.65;45.84;101866.03;5044470;28;20371;-58
2022/05/12 10:33:34;;;;;;;;;;;;;;;17.52;45.79;101856.75;5045413;28;19925;-58
2022/05/12 10:36:00;;;;;;;;;;;;;;;17.49;45.76;101857.13;5047254;28;19928;-59
2022/05/12 10:38:26;;;;;;;;;;;;;;;17.44;46.29;101854.16;5044544;28;19929;-58
2022/05/12 10:40:55;;;;;;;;;;;;;;;17.53;46.65;101853.06;5045089;28;19967;-58
2022/05/12 10:43:42;;;;;;;;;;;;;;;17.77;46.71;101848.47;5046231;28;19944;-58
2022/05/12 10:46:13;;;;;;;;;;;;;;;17.85;45.74;101844.84;5006735;28;19929;-58
2022/05/12 10:48:44;;;;;;;;;;;;;;;17.96;44.42;101840.88;5046459;28;19925;-58
2022/05/12 10:51:35;;;;;;;;;;;;;;;17.90;45.22;101846.97;5041331;28;19921;-59
2022/05/12 10:54:24;;;;;;;;;;;;;;;17.96;44.76;101840.88;5040705;28;19921;-58
2022/05/12 10:57:09;;;;;;;;;;;;;;;18.05;44.64;101841.59;5035621;28;19925;-58
2022/05/12 10:59:34;;;;;;;;;;;;;;;18.12;43.39;101848.72;5042800;28;19928;-59
2022/05/12 11:02:29;;;;;;;;;;;;;;;18.11;43.71;101843.56;5046368;28;19921;-59
2022/05/12 11:05:04;;;;;;;;;;;;;;;18.25;43.10;101844.53;4979840;28;19926;-59
2022/05/12 11:07:39;;;;;;;;;;;;;;;18.27;43.81;101837.16;5043122;28;19943;-60
2022/05/12 11:10:23;;;;;;;;;;;;;;;18.54;43.63;101837.44;5049278;28;20391;-59
2022/05/12 11:12:51;;;;;;;;;;;;;;;18.65;42.95;101833.44;5042414;28;19929;-58
2022/05/12 11:15:18;;;;;;;;;;;;;;;18.62;42.88;101833.81;5043570;28;20371;-58
2022/05/12 11:17:53;;;;;;;;;;;;;;;18.63;42.07;101828.25;5043788;28;20409;-58
2022/05/12 11:20:23;;;;;;;;;;;;;;;18.63;41.68;101830.94;5046561;28;19977;-58
2022/05/12 11:22:54;;;;;;;;;;;;;;;18.64;42.09;101829.06;5042777;28;19947;-57
2022/05/12 11:25:25;;;;;;;;;;;;;;;18.65;42.22;101828.88;5044819;28;19921;-58
2022/05/12 11:29:41;;;;;;;;;;;;;;;18.77;41.29;101831.06;5046069;28;20318;-58
2022/05/12 11:30:47;;;;;;;;;;;;;;;18.90;41.13;101836.53;5046256;28;20330;-58
2022/05/12 11:33:16;;;;;;;;;;;;;;;18.98;40.63;101832.09;5040748;28;20347;-59
2022/05/12 11:35:45;;;;;;;;;;;;;;;18.72;42.24;101822.72;5042114;28;19921;-57
2022/05/12 11:38:31;;;;;;;;;;;;;;;18.86;42.18;101813.78;5043817;28;19925;-58
2022/05/12 11:40:57;;;;;;;;;;;;;;;18.99;41.29;101817.63;5031534;28;20380;-58
2022/05/12 11:46:41;;;;;;;;;;;;;;;19.05;40.11;101817.69;5042928;28;19961;-58
2022/05/12 11:49:25;;;;;;;;;;;;;;;18.82;40.90;101823.25;5045936;28;19925;-58
2022/05/12 11:51:56;;;;;;;;;;;;;;;18.89;40.89;101824.13;5044132;28;20367;-59
2022/05/12 11:54:38;;;;;;;;;;;;;;;18.84;40.19;101815.81;5040695;28;19979;-58
2022/05/12 11:57:22;;;;;;;;;;;;;;;18.67;40.74;101815.25;5048370;28;19924;-60
2022/05/12 11:59:51;;;;;;;;;;;;;;;18.64;39.92;101821.84;5044666;28;19925;-60
2022/05/12 12:02:29;;;;;;;;;;;;;;;18.55;40.13;101833.72;5027431;28;20283;-60
2022/05/12 12:05:08;;;;;;;;;;;;;;;18.58;39.48;101816.41;5046187;28;19987;-60
2022/05/12 12:07:35;;;;;;;;;;;;;;;18.56;40.35;101816.59;5041113;28;19917;-61
2022/05/12 12:10:06;;;;;;;;;;;;;;;18.55;41.15;101812.22;5048244;28;19964;-60
2022/05/12 12:12:52;;;;;;;;;;;;;;;18.66;41.82;101822.47;5043481;28;19958;-60
2022/05/12 12:15:20;;;;;;;;;;;;;;;18.98;40.53;101819.47;5044910;28;19978;-61
2022/05/12 12:17:45;;;;;;;;;;;;;;;19.05;39.59;101814.19;5042173;28;19974;-60
2022/05/12 12:20:31;;;;;;;;;;;;;;;19.12;39.62;101801.63;5040651;28;19917;-61
2022/05/12 12:23:15;;;;;;;;;;;;;;;19.30;39.85;101803.81;5045858;28;19968;-60
2022/05/12 12:25:41;;;;;;;;;;;;;;;19.52;37.02;101811.81;5048436;28;19921;-58
2022/05/12 12:28:23;;;;;;;;;;;;;;;19.58;37.66;101816.41;5050746;28;19971;-59
2022/05/12 12:30:55;;;;;;;;;;;;;;;19.66;36.78;101806.50;5046034;28;19952;-60
2022/05/12 12:33:29;;;;;;;;;;;;;;;19.61;37.92;101818.72;5043360;28;19925;-57
2022/05/12 12:36:00;;;;;;;;;;;;;;;19.71;36.75;101807.59;5048478;28;20000;-58
2022/05/12 12:38:44;;;;;;;;;;;;;;;19.85;36.68;101810.34;5047075;28;19925;-59
2022/05/12 12:41:10;;;;;;;;;;;;;;;19.83;38.08;101799.75;5048763;28;19963;-59
2022/05/12 12:43:37;;;;;;;;;;;;;;;19.80;37.58;101804.72;5050564;28;19928;-58
2022/05/12 12:46:11;;;;;;;;;;;;;;;19.47;38.57;101796.28;5047606;28;20007;-59
2022/05/12 12:48:40;;;;;;;;;;;;;;;19.25;39.67;101794.66;5049937;28;19990;-59
2022/05/12 12:51:05;;;;;;;;;;;;;;;19.22;39.67;101796.75;5048268;28;19927;-59
2022/05/12 12:56:32;;;;;;;;;;;;;;;19.13;39.39;101797.91;5050383;28;19974;-59
2022/05/12 12:59:18;;;;;;;;;;;;;;;19.25;38.95;101791.97;5049168;28;19925;-58
2022/05/12 13:01:49;;;;;;;;;;;;;;;19.34;39.87;101788.13;5047983;28;19970;-57
2022/05/12 13:04:17;;;;;;;;;;;;;;;19.43;39.14;101780.72;5047793;28;19936;-57